createdAt,value
2023-01-23T00:01:35.761Z,38.12
2023-01-23T00:04:05.038Z,38.60
2023-01-23T00:06:32.832Z,38.98
2023-01-23T00:09:00.467Z,38.53
2023-01-23T00:11:30.576Z,38.92
2023-01-23T00:14:00.219Z,38.53
2023-01-23T00:16:31.290Z,37.65
2023-01-23T00:18:59.565Z,38.47
2023-01-23T00:21:29.169Z,38.56
2023-01-23T00:23:59.432Z,38.68
2023-01-23T00:26:30.228Z,38.63
2023-01-23T00:28:58.097Z,38.56
2023-01-23T00:31:33.037Z,38.79
2023-01-23T00:34:03.747Z,38.33
2023-01-23T00:36:37.059Z,38.30
2023-01-23T00:39:08.173Z,38.65
2023-01-23T00:41:35.898Z,38.57
2023-01-23T00:44:04.987Z,38.83
2023-01-23T00:46:32.536Z,39.37
2023-01-23T00:49:00.065Z,38.43
2023-01-23T00:51:27.544Z,38.81
2023-01-23T00:53:55.167Z,39.30
2023-01-23T00:56:22.697Z,38.70
2023-01-23T00:58:50.219Z,38.90
2023-01-23T01:01:18.588Z,39.08
2023-01-23T01:03:46.788Z,39.07
2023-01-23T01:06:14.302Z,39.25
2023-01-23T01:08:41.919Z,39.26
2023-01-23T01:11:09.470Z,39.43
2023-01-23T01:13:37.624Z,39.71
2023-01-23T01:16:05.699Z,39.49
2023-01-23T01:18:33.398Z,38.89
2023-01-23T01:21:00.954Z,39.34
2023-01-23T01:23:28.583Z,39.60
2023-01-23T01:25:59.823Z,39.67
2023-01-23T01:28:30.567Z,39.61
2023-01-23T01:30:59.223Z,39.62
2023-01-23T01:33:28.672Z,39.39
2023-01-23T01:35:56.930Z,39.22
2023-01-23T01:38:25.080Z,39.49
2023-01-23T01:40:52.995Z,39.12
2023-01-23T01:43:23.587Z,40.16
2023-01-23T01:46:27.760Z,39.22
2023-01-23T01:49:19.773Z,40.33
2023-01-23T01:52:04.006Z,39.97
2023-01-23T01:54:49.117Z,39.50
2023-01-23T01:57:22.233Z,38.80
2023-01-23T02:00:04.146Z,39.46
2023-01-23T02:02:47.875Z,39.27
2023-01-23T02:05:25.570Z,39.73
2023-01-23T02:08:17.324Z,40.62
2023-01-23T02:10:46.987Z,39.74
2023-01-23T02:13:30.663Z,39.57
2023-01-23T02:16:01.249Z,39.47
2023-01-23T02:18:31.046Z,39.42
2023-01-23T02:21:01.839Z,39.85
2023-01-23T02:23:47.423Z,39.40
2023-01-23T02:26:34.312Z,39.72
2023-01-23T02:29:01.839Z,39.80
2023-01-23T02:31:33.636Z,39.44
2023-01-23T02:34:01.803Z,39.52
2023-01-23T02:36:32.939Z,39.54
2023-01-23T02:39:13.604Z,38.68
2023-01-23T02:41:46.742Z,39.42
2023-01-23T02:44:21.450Z,39.81
2023-01-23T02:46:56.970Z,40.33
2023-01-23T02:49:27.794Z,39.98
2023-01-23T02:51:56.753Z,40.06
2023-01-23T02:54:25.852Z,40.20
2023-01-23T02:56:53.850Z,39.79
2023-01-23T02:59:42.419Z,40.37
2023-01-23T03:02:11.178Z,40.68
2023-01-23T03:04:38.753Z,40.80
2023-01-23T03:07:06.226Z,40.35
2023-01-23T03:09:33.842Z,41.37
2023-01-23T03:12:01.498Z,40.32
2023-01-23T03:14:30.349Z,40.67
2023-01-23T03:16:59.456Z,40.36
2023-01-23T03:19:31.637Z,40.90
2023-01-23T03:21:59.507Z,40.70
2023-01-23T03:24:27.025Z,40.53
2023-01-23T03:26:54.565Z,40.27
2023-01-23T03:29:45.365Z,40.74
2023-01-23T03:32:16.790Z,40.29
2023-01-23T03:34:45.345Z,40.74
2023-01-23T03:37:15.391Z,40.66
2023-01-23T03:40:04.676Z,40.56
2023-01-23T03:42:36.371Z,41.55
2023-01-23T03:45:06.525Z,41.36
2023-01-23T03:47:36.247Z,40.95
2023-01-23T03:50:04.730Z,40.61
2023-01-23T03:52:38.172Z,41.10
2023-01-23T03:55:07.045Z,41.39
2023-01-23T03:57:34.754Z,41.17
2023-01-23T04:00:14.009Z,41.42
2023-01-23T04:02:43.971Z,40.90
2023-01-23T04:05:14.198Z,41.05
2023-01-23T04:07:41.779Z,41.31
2023-01-23T04:10:12.096Z,41.04
2023-01-23T04:12:43.572Z,41.58
2023-01-23T04:15:12.045Z,41.32
2023-01-23T04:17:42.216Z,41.15
2023-01-23T04:20:10.977Z,41.32
2023-01-23T04:22:39.072Z,40.87
2023-01-23T04:25:07.527Z,41.46
2023-01-23T04:27:35.160Z,41.40
2023-01-23T04:30:03.981Z,41.46
2023-01-23T04:32:32.093Z,41.38
2023-01-23T04:34:59.589Z,41.62
2023-01-23T04:37:27.873Z,41.55
2023-01-23T04:39:56.275Z,41.51
2023-01-23T04:42:23.860Z,41.64
2023-01-23T04:45:12.020Z,41.67
2023-01-23T04:47:58.075Z,41.77
2023-01-23T04:50:25.835Z,41.24
2023-01-23T04:52:53.359Z,41.71
2023-01-23T04:55:20.899Z,41.34
2023-01-23T04:57:48.737Z,41.41
2023-01-23T05:00:23.618Z,41.93
2023-01-23T05:02:52.029Z,41.42
2023-01-23T05:05:21.435Z,41.73
2023-01-23T05:07:52.522Z,41.59
2023-01-23T05:10:20.511Z,42.03
2023-01-23T05:12:49.581Z,41.82
2023-01-23T05:15:17.848Z,42.10
2023-01-23T05:17:47.827Z,42.28
2023-01-23T05:20:16.446Z,41.71
2023-01-23T05:22:52.833Z,41.95
2023-01-23T05:25:29.191Z,41.31
2023-01-23T05:27:58.505Z,41.87
2023-01-23T05:30:26.583Z,42.01
2023-01-23T05:33:05.512Z,42.66
2023-01-23T05:35:33.123Z,42.02
2023-01-23T05:38:01.203Z,42.29
2023-01-23T05:40:28.756Z,43.16
2023-01-23T05:43:16.603Z,43.03
2023-01-23T05:46:07.022Z,42.29
2023-01-23T05:48:44.557Z,42.44
2023-01-23T05:51:12.531Z,41.93
2023-01-23T05:53:40.110Z,43.48
2023-01-23T05:56:09.464Z,41.21
2023-01-23T05:58:59.683Z,41.89
2023-01-23T06:01:45.287Z,42.88
2023-01-23T06:04:48.076Z,41.84
2023-01-23T06:07:25.199Z,41.32
2023-01-23T06:09:56.391Z,41.78
2023-01-23T06:12:24.065Z,41.34
2023-01-23T06:14:52.229Z,41.60
2023-01-23T06:17:20.458Z,41.58
2023-01-23T06:19:49.109Z,42.07
2023-01-23T06:22:17.420Z,42.13
2023-01-23T06:25:04.462Z,41.53
2023-01-23T06:27:32.312Z,41.50
2023-01-23T06:30:04.133Z,42.20
2023-01-23T06:32:35.226Z,40.98
2023-01-23T06:35:04.906Z,41.45
2023-01-23T06:37:36.511Z,41.46
2023-01-23T06:40:05.433Z,41.43
2023-01-23T06:42:33.505Z,41.52
2023-01-23T06:45:01.641Z,41.47
2023-01-23T06:47:31.491Z,41.71
2023-01-23T06:50:02.806Z,41.94
2023-01-23T06:52:33.951Z,41.87
2023-01-23T06:55:01.431Z,43.30
2023-01-23T06:57:30.332Z,42.11
2023-01-23T06:59:58.106Z,43.70
2023-01-23T07:02:25.821Z,43.11
2023-01-23T07:04:53.524Z,43.93
2023-01-23T07:07:21.093Z,42.82
2023-01-23T07:09:50.403Z,42.99
2023-01-23T07:12:24.723Z,42.51
2023-01-23T07:14:52.470Z,42.43
2023-01-23T07:17:31.244Z,42.04
2023-01-23T07:19:59.013Z,41.83
2023-01-23T07:22:26.617Z,41.04
2023-01-23T07:24:54.163Z,41.24
2023-01-23T07:27:21.750Z,41.16
2023-01-23T07:29:49.216Z,41.56
2023-01-23T07:32:16.818Z,41.48
2023-01-23T07:34:44.318Z,40.99
2023-01-23T07:37:11.807Z,41.21
2023-01-23T07:39:39.376Z,40.77
2023-01-23T07:42:06.882Z,40.72
2023-01-23T07:44:34.347Z,40.59
2023-01-23T07:47:01.771Z,40.91
2023-01-23T07:49:29.364Z,40.44
2023-01-23T07:51:56.818Z,40.24
2023-01-23T07:54:24.370Z,40.09
2023-01-23T07:56:51.914Z,40.23
2023-01-23T07:59:19.487Z,40.18
2023-01-23T08:01:47.035Z,40.07
2023-01-23T08:04:14.831Z,40.06
2023-01-23T08:06:42.297Z,39.29
2023-01-23T08:09:09.871Z,39.47
2023-01-23T08:11:37.373Z,39.02
2023-01-23T08:14:04.910Z,39.63
2023-01-23T08:16:32.399Z,39.42
2023-01-23T08:19:00.120Z,39.21
2023-01-23T08:21:27.650Z,39.85
2023-01-23T08:23:55.055Z,39.34
2023-01-23T08:26:22.527Z,39.32
2023-01-23T08:28:49.998Z,39.15
2023-01-23T08:31:17.595Z,38.81
2023-01-23T08:33:45.165Z,39.06
2023-01-23T08:36:13.997Z,39.61
2023-01-23T08:38:41.885Z,39.67
2023-01-23T08:41:12.132Z,39.29
2023-01-23T08:43:41.935Z,39.28
2023-01-23T08:46:10.647Z,39.52
2023-01-23T08:48:38.557Z,39.64
2023-01-23T08:51:08.905Z,39.81
2023-01-23T08:53:37.421Z,39.82
2023-01-23T08:56:17.354Z,39.69
2023-01-23T08:58:46.305Z,39.95
2023-01-23T09:01:20.839Z,39.75
2023-01-23T09:03:48.969Z,39.59
2023-01-23T09:06:18.844Z,39.11
2023-01-23T09:08:47.104Z,39.43
2023-01-23T09:11:14.786Z,39.81
2023-01-23T09:13:42.711Z,39.71
2023-01-23T09:16:10.474Z,39.69
2023-01-23T09:18:38.136Z,39.18
2023-01-23T09:21:11.708Z,39.22
2023-01-23T09:23:39.275Z,38.94
2023-01-23T09:26:12.452Z,39.48
2023-01-23T09:28:42.988Z,39.59
2023-01-23T09:31:12.890Z,39.23
2023-01-23T09:33:41.399Z,39.69
2023-01-23T09:36:09.509Z,39.19
2023-01-23T09:38:37.448Z,39.47
2023-01-23T09:41:11.832Z,39.32
2023-01-23T09:44:07.672Z,39.56
2023-01-23T09:46:47.242Z,39.83
2023-01-23T09:49:21.810Z,39.04
2023-01-23T09:51:59.655Z,39.83
2023-01-23T09:54:37.602Z,40.19
2023-01-23T09:57:13.979Z,39.64
2023-01-23T09:59:58.767Z,39.55
2023-01-23T10:02:28.324Z,39.63
2023-01-23T10:04:58.372Z,39.87
2023-01-23T10:07:35.138Z,39.72
2023-01-23T10:10:44.596Z,40.37
2023-01-23T10:13:18.898Z,40.48
2023-01-23T10:16:07.887Z,39.98
2023-01-23T10:19:09.200Z,40.40
2023-01-23T10:21:41.714Z,40.14
2023-01-23T10:24:40.042Z,40.48
2023-01-23T10:27:26.930Z,40.75
2023-01-23T10:30:02.681Z,40.39
2023-01-23T10:32:41.616Z,40.53
2023-01-23T10:35:19.369Z,40.73
2023-01-23T10:37:51.530Z,40.11
2023-01-23T10:40:47.356Z,40.39
2023-01-23T10:43:20.742Z,40.24
2023-01-23T10:45:49.941Z,40.33
2023-01-23T10:48:32.729Z,41.15
2023-01-23T10:51:00.963Z,40.53
2023-01-23T10:53:28.582Z,40.56
2023-01-23T10:55:59.822Z,40.74
2023-01-23T10:58:37.089Z,41.32
2023-01-23T11:01:06.361Z,41.57
2023-01-23T11:03:36.200Z,42.28
2023-01-23T11:06:09.290Z,42.05
2023-01-23T11:08:39.897Z,41.14
2023-01-23T11:11:16.815Z,41.64
2023-01-23T11:13:47.274Z,42.10
2023-01-23T11:16:19.763Z,42.33
2023-01-23T11:18:55.687Z,42.33
2023-01-23T11:21:24.575Z,41.61
2023-01-23T11:24:09.892Z,42.23
2023-01-23T11:26:39.033Z,41.69
2023-01-23T11:29:25.771Z,42.42
2023-01-23T11:31:59.512Z,42.24
2023-01-23T11:34:35.151Z,42.30
2023-01-23T11:37:28.952Z,42.13
2023-01-23T11:40:18.607Z,41.29
2023-01-23T11:42:47.182Z,41.59
2023-01-23T11:45:35.605Z,42.37
2023-01-23T11:48:12.363Z,42.29
2023-01-23T11:51:07.638Z,41.87
2023-01-23T11:53:58.279Z,41.90
2023-01-23T11:57:11.077Z,42.04
2023-01-23T12:00:00.017Z,41.00
2023-01-23T12:02:38.495Z,42.58
2023-01-23T12:05:34.105Z,41.60
2023-01-23T12:08:28.189Z,42.65
2023-01-23T12:11:14.130Z,42.47
2023-01-23T12:14:05.950Z,41.69
2023-01-23T12:16:58.344Z,42.75
2023-01-23T12:20:09.354Z,41.93
2023-01-23T12:22:55.296Z,42.21
2023-01-23T12:25:35.146Z,43.13
2023-01-23T12:28:18.063Z,42.55
2023-01-23T12:31:22.527Z,42.46
2023-01-23T12:33:50.111Z,42.41
2023-01-23T12:36:59.460Z,43.04
2023-01-23T12:39:37.583Z,42.32
2023-01-23T12:42:13.663Z,41.76
2023-01-23T12:44:49.485Z,42.93
2023-01-23T12:47:44.955Z,41.92
2023-01-23T12:50:24.811Z,43.49
2023-01-23T12:53:04.116Z,43.44
2023-01-23T12:55:36.123Z,44.07
2023-01-23T12:58:09.583Z,43.82
2023-01-23T13:01:09.457Z,43.71
2023-01-23T13:03:46.103Z,43.50
2023-01-23T13:06:38.032Z,44.35
2023-01-23T13:09:33.733Z,44.91
2023-01-23T13:12:22.292Z,43.71
2023-01-23T13:17:49.159Z,44.38
2023-01-23T13:20:43.463Z,44.01
2023-01-23T13:23:20.251Z,44.71
2023-01-23T13:25:48.372Z,44.40
2023-01-23T13:28:44.632Z,44.23
2023-01-23T13:31:46.946Z,43.86
2023-01-23T13:34:18.060Z,45.14
2023-01-23T13:36:53.486Z,43.89
2023-01-23T13:39:26.034Z,44.59
2023-01-23T13:42:16.330Z,44.33
2023-01-23T13:45:19.164Z,44.01
2023-01-23T14:20:19.619Z,44.14
2023-01-23T14:22:47.688Z,43.87
2023-01-23T14:25:18.831Z,43.92
2023-01-23T14:30:30.621Z,44.22
2023-01-23T14:33:01.354Z,44.62
2023-01-23T14:35:33.109Z,45.06
2023-01-23T14:38:05.742Z,44.82
2023-01-23T14:40:49.053Z,44.28
2023-01-23T14:43:27.096Z,44.57
2023-01-23T14:46:08.202Z,44.36
2023-01-23T14:48:40.783Z,44.70
2023-01-23T14:51:20.117Z,44.92
2023-01-23T14:53:57.278Z,44.23
2023-01-23T14:56:37.234Z,44.90
2023-01-23T14:59:08.455Z,44.24
2023-01-23T15:01:36.258Z,44.71
2023-01-23T15:04:07.815Z,45.10
2023-01-23T15:06:36.806Z,44.60
2023-01-23T15:09:18.040Z,44.93
2023-01-23T15:11:46.180Z,44.23
2023-01-23T15:14:36.931Z,45.08
2023-01-23T15:17:08.236Z,44.09
2023-01-23T15:19:38.100Z,44.85
2023-01-23T15:22:22.291Z,45.32
2023-01-23T15:24:50.019Z,45.11
2023-01-23T15:27:43.711Z,45.44
2023-01-23T15:30:36.237Z,45.49
2023-01-23T15:33:09.430Z,45.31
2023-01-23T15:35:38.868Z,45.43
2023-01-23T15:38:08.656Z,45.26
2023-01-23T15:40:38.751Z,45.07
2023-01-23T15:43:19.082Z,46.23
2023-01-23T15:45:47.258Z,45.49
2023-01-23T15:48:14.789Z,45.70
2023-01-23T15:50:42.629Z,45.74
2023-01-23T15:53:14.787Z,46.38
2023-01-23T15:55:42.271Z,46.23
2023-01-23T15:58:17.147Z,46.06
2023-01-23T16:00:44.684Z,45.96
2023-01-23T16:03:15.024Z,46.00
2023-01-23T16:06:02.339Z,45.54
2023-01-23T16:08:30.037Z,45.95
2023-01-23T16:10:57.646Z,45.46
2023-01-23T16:13:25.305Z,45.03
2023-01-23T16:15:53.367Z,45.79
2023-01-23T16:18:21.213Z,45.99
2023-01-23T16:20:49.124Z,45.97
2023-01-23T16:23:29.280Z,46.81
2023-01-23T16:26:06.585Z,46.09
2023-01-23T16:31:21.916Z,45.75
2023-01-23T16:33:49.855Z,46.19
2023-01-23T16:36:19.149Z,46.08
2023-01-23T16:38:56.338Z,46.74
2023-01-23T16:41:23.930Z,46.11
2023-01-23T16:43:51.443Z,46.03
2023-01-23T16:46:20.350Z,45.93
2023-01-23T16:48:50.806Z,45.80
2023-01-23T16:51:23.607Z,46.19
2023-01-23T16:53:56.282Z,45.96
2023-01-23T16:56:30.451Z,46.43
2023-01-23T16:58:58.442Z,46.48
2023-01-23T17:01:27.408Z,46.61
2023-01-23T17:03:59.567Z,46.80
2023-01-23T17:06:27.414Z,46.14
2023-01-23T17:08:56.417Z,45.80
2023-01-23T17:11:29.746Z,46.52
2023-01-23T17:14:02.980Z,46.86
2023-01-23T17:16:30.682Z,46.34
2023-01-23T17:19:01.394Z,46.63
2023-01-23T17:21:34.254Z,46.96
2023-01-23T17:24:02.047Z,47.08
2023-01-23T17:26:29.631Z,46.93
2023-01-23T17:28:57.452Z,46.47
2023-01-23T17:31:28.743Z,45.61
2023-01-23T17:33:56.527Z,46.49
2023-01-23T17:36:27.702Z,47.06
2023-01-23T17:38:58.002Z,46.96
2023-01-23T17:41:25.768Z,46.85
2023-01-23T17:43:53.421Z,46.36
2023-01-23T17:46:26.544Z,46.88
2023-01-23T17:48:55.175Z,46.59
2023-01-23T17:51:26.680Z,46.89
2023-01-23T17:53:55.564Z,46.78
2023-01-23T17:56:23.428Z,46.60
2023-01-23T17:58:51.021Z,46.61
2023-01-23T18:01:22.664Z,46.90
2023-01-23T18:03:51.610Z,46.55
2023-01-23T18:06:21.443Z,46.10
2023-01-23T18:08:49.239Z,46.17
2023-01-23T18:11:20.247Z,46.75
2023-01-23T18:13:50.756Z,47.50
2023-01-23T18:16:26.858Z,47.71
2023-01-23T18:19:04.834Z,46.99
2023-01-23T18:21:32.784Z,46.98
2023-01-23T18:24:00.747Z,47.94
2023-01-23T18:26:56.119Z,48.33
2023-01-23T18:29:30.283Z,48.70
2023-01-23T18:32:15.376Z,48.90
2023-01-23T18:34:52.249Z,47.88
2023-01-23T18:37:33.872Z,49.17
2023-01-23T18:40:05.084Z,48.48
2023-01-23T18:42:38.951Z,48.41
2023-01-23T18:45:11.049Z,47.85
2023-01-23T18:47:39.924Z,47.94
2023-01-23T18:50:11.323Z,47.09
2023-01-23T18:53:12.224Z,47.87
2023-01-23T18:55:52.366Z,47.46
2023-01-23T18:59:06.208Z,47.97
2023-01-23T19:02:26.309Z,47.81
2023-01-23T19:05:16.233Z,47.13
2023-01-23T19:07:45.309Z,47.08
2023-01-23T19:10:18.372Z,47.01
2023-01-23T19:13:14.064Z,46.34
2023-01-23T19:16:08.758Z,45.91
2023-01-23T19:18:48.890Z,47.25
2023-01-23T19:21:26.999Z,46.67
2023-01-23T19:24:01.843Z,46.33
2023-01-23T19:26:37.789Z,46.06
2023-01-23T19:29:21.615Z,48.06
2023-01-23T19:32:06.607Z,47.07
2023-01-23T19:34:35.007Z,46.72
2023-01-23T19:37:03.359Z,47.63
2023-01-23T19:39:31.212Z,46.92
2023-01-23T19:41:59.578Z,46.79
2023-01-23T19:44:29.177Z,46.86
2023-01-23T19:46:56.791Z,47.27
2023-01-23T19:49:25.539Z,46.90
2023-01-23T19:51:53.277Z,46.80
2023-01-23T19:54:23.002Z,47.05
2023-01-23T19:56:52.307Z,47.96
2023-01-23T19:59:19.882Z,48.39
2023-01-23T20:01:52.754Z,48.38
2023-01-23T20:04:36.865Z,48.26
2023-01-23T20:07:04.890Z,47.79
2023-01-23T20:09:32.367Z,47.34
2023-01-23T20:12:03.271Z,47.37
2023-01-23T20:14:31.008Z,47.71
2023-01-23T20:17:24.393Z,48.71
2023-01-23T20:19:56.245Z,48.37
2023-01-23T20:22:24.968Z,48.62
2023-01-23T20:24:52.330Z,48.26
2023-01-23T20:27:20.527Z,47.80
2023-01-23T20:29:52.242Z,48.31
2023-01-23T20:32:19.911Z,47.84
2023-01-23T20:34:47.760Z,48.30
2023-01-23T20:37:15.442Z,48.97
2023-01-23T20:39:43.032Z,47.81
2023-01-23T20:42:11.376Z,47.93
2023-01-23T20:44:39.028Z,48.79
2023-01-23T20:47:06.883Z,48.61
2023-01-23T20:49:34.374Z,48.03
2023-01-23T20:52:20.082Z,48.61
2023-01-23T20:54:47.994Z,49.19
2023-01-23T20:57:16.331Z,48.97
2023-01-23T20:59:43.758Z,48.53
2023-01-23T21:02:24.543Z,49.07
2023-01-23T21:04:53.601Z,48.68
2023-01-23T21:07:22.405Z,48.80
2023-01-23T21:09:50.003Z,48.81
2023-01-23T21:12:17.602Z,48.35
2023-01-23T21:14:45.363Z,47.82
2023-01-23T21:17:12.829Z,48.55
2023-01-23T21:19:40.396Z,48.79
2023-01-23T21:22:08.295Z,48.58
2023-01-23T21:24:36.710Z,48.13
2023-01-23T21:27:06.058Z,48.27
2023-01-23T21:29:34.222Z,48.31
2023-01-23T21:32:01.867Z,48.43
2023-01-23T21:34:30.637Z,47.79
2023-01-23T21:36:58.156Z,47.92
2023-01-23T21:39:25.650Z,47.90
2023-01-23T21:41:53.190Z,47.64
2023-01-23T21:44:20.872Z,47.51
2023-01-23T21:46:49.427Z,47.63
2023-01-23T21:49:16.887Z,47.82
2023-01-23T21:51:45.263Z,47.58
2023-01-23T21:54:12.739Z,47.24
2023-01-23T21:56:40.245Z,47.27
2023-01-23T21:59:07.659Z,48.17
2023-01-23T22:01:52.899Z,47.57
2023-01-23T22:04:24.240Z,46.84
2023-01-23T22:06:56.553Z,47.81
2023-01-23T22:09:25.699Z,48.03
2023-01-23T22:11:54.214Z,47.92
2023-01-23T22:14:21.789Z,48.09
2023-01-23T22:16:50.538Z,47.62
2023-01-23T22:19:25.299Z,47.69
2023-01-23T22:21:57.430Z,48.18
2023-01-23T22:24:25.336Z,46.91
2023-01-23T22:26:52.787Z,47.31
2023-01-23T22:29:20.400Z,47.70
2023-01-23T22:31:47.963Z,47.76
2023-01-23T22:34:15.623Z,47.43
2023-01-23T22:36:43.069Z,47.51
2023-01-23T22:39:14.102Z,46.79
2023-01-23T22:41:41.569Z,47.58
2023-01-23T22:44:09.059Z,47.00
2023-01-23T22:46:36.593Z,47.09
2023-01-23T22:49:04.272Z,46.50
2023-01-23T22:51:32.008Z,47.00
2023-01-23T22:53:59.638Z,46.83
2023-01-23T22:56:28.679Z,47.48
2023-01-23T22:58:57.283Z,47.99
2023-01-23T23:01:27.462Z,47.35
2023-01-23T23:03:58.032Z,47.69
2023-01-23T23:06:26.372Z,47.17
2023-01-23T23:08:53.856Z,46.75
2023-01-23T23:11:23.853Z,47.13
2023-01-23T23:13:51.633Z,47.07
2023-01-23T23:16:31.432Z,47.71
2023-01-23T23:19:02.531Z,47.20
2023-01-23T23:21:34.305Z,47.11
2023-01-23T23:24:02.950Z,47.20
2023-01-23T23:26:31.915Z,47.12
2023-01-23T23:29:01.054Z,47.73
2023-01-23T23:31:28.918Z,47.42
2023-01-23T23:33:56.620Z,47.58
2023-01-23T23:36:24.269Z,48.11
2023-01-23T23:38:51.786Z,47.40
2023-01-23T23:41:19.759Z,47.92
2023-01-23T23:43:47.336Z,48.07
2023-01-23T23:46:16.570Z,48.31
2023-01-23T23:48:44.226Z,47.80
2023-01-23T23:51:14.236Z,48.47
2023-01-23T23:53:42.091Z,47.83
2023-01-23T23:56:13.608Z,48.27
2023-01-23T23:58:41.036Z,48.10
